sensor_id;sensor_type;location;lat;lon;timestamp;P1;durP1;ratioP1;P2;durP2;ratioP2
17866;SDS011;9059;49.934;8.650;2023-10-19T00:00:02;5.97;;;2.58;;
17866;SDS011;9059;49.934;8.650;2023-10-19T00:10:22;5.60;;;3.20;;
17866;SDS011;9059;49.934;8.650;2023-10-19T00:20:26;6.35;;;2.80;;
17866;SDS011;9059;49.934;8.650;2023-10-19T00:30:39;5.90;;;2.95;;
17866;SDS011;9059;49.934;8.650;2023-10-19T00:40:43;6.22;;;3.20;;
17866;SDS011;9059;49.934;8.650;2023-10-19T00:50:55;8.50;;;3.20;;
17866;SDS011;9059;49.934;8.650;2023-10-19T01:01:08;11.57;;;3.47;;
17866;SDS011;9059;49.934;8.650;2023-10-19T01:11:13;5.95;;;2.67;;
17866;SDS011;9059;49.934;8.650;2023-10-19T01:21:21;7.57;;;3.00;;
17866;SDS011;9059;49.934;8.650;2023-10-19T01:31:28;8.55;;;3.25;;
17866;SDS011;9059;49.934;8.650;2023-10-19T01:41:41;6.35;;;3.15;;
17866;SDS011;9059;49.934;8.650;2023-10-19T01:51:45;6.70;;;3.55;;
17866;SDS011;9059;49.934;8.650;2023-10-19T02:01:49;7.53;;;3.65;;
17866;SDS011;9059;49.934;8.650;2023-10-19T02:11:54;7.28;;;3.20;;
17866;SDS011;9059;49.934;8.650;2023-10-19T02:22:00;5.93;;;3.47;;
17866;SDS011;9059;49.934;8.650;2023-10-19T02:32:06;7.03;;;3.88;;
17866;SDS011;9059;49.934;8.650;2023-10-19T02:42:10;9.35;;;3.90;;
17866;SDS011;9059;49.934;8.650;2023-10-19T02:52:14;7.95;;;3.85;;
17866;SDS011;9059;49.934;8.650;2023-10-19T03:02:18;7.70;;;4.03;;
17866;SDS011;9059;49.934;8.650;2023-10-19T03:12:22;15.07;;;4.60;;
17866;SDS011;9059;49.934;8.650;2023-10-19T03:22:28;9.50;;;4.93;;
17866;SDS011;9059;49.934;8.650;2023-10-19T03:32:33;9.38;;;3.95;;
17866;SDS011;9059;49.934;8.650;2023-10-19T03:42:37;8.57;;;4.78;;
17866;SDS011;9059;49.934;8.650;2023-10-19T03:52:43;10.25;;;4.65;;
17866;SDS011;9059;49.934;8.650;2023-10-19T04:02:46;10.50;;;4.70;;
17866;SDS011;9059;49.934;8.650;2023-10-19T04:12:51;9.32;;;5.30;;
17866;SDS011;9059;49.934;8.650;2023-10-19T04:22:55;11.77;;;4.85;;
17866;SDS011;9059;49.934;8.650;2023-10-19T04:33:01;9.90;;;4.95;;
17866;SDS011;9059;49.934;8.650;2023-10-19T04:43:04;10.05;;;4.50;;
17866;SDS011;9059;49.934;8.650;2023-10-19T04:53:08;11.93;;;5.45;;
17866;SDS011;9059;49.934;8.650;2023-10-19T05:03:12;11.63;;;5.13;;
17866;SDS011;9059;49.934;8.650;2023-10-19T05:13:21;10.65;;;5.13;;
17866;SDS011;9059;49.934;8.650;2023-10-19T05:23:24;10.32;;;4.90;;
17866;SDS011;9059;49.934;8.650;2023-10-19T05:33:31;10.82;;;5.10;;
17866;SDS011;9059;49.934;8.650;2023-10-19T05:43:34;16.05;;;5.85;;
17866;SDS011;9059;49.934;8.650;2023-10-19T05:53:38;11.88;;;5.50;;
17866;SDS011;9059;49.934;8.650;2023-10-19T06:03:42;14.85;;;5.97;;
17866;SDS011;9059;49.934;8.650;2023-10-19T06:13:47;11.57;;;5.53;;
17866;SDS011;9059;49.934;8.650;2023-10-19T06:23:50;11.30;;;5.35;;
17866;SDS011;9059;49.934;8.650;2023-10-19T06:33:56;10.35;;;5.45;;
17866;SDS011;9059;49.934;8.650;2023-10-19T06:43:59;19.30;;;5.20;;
17866;SDS011;9059;49.934;8.650;2023-10-19T06:54:04;16.58;;;4.93;;
17866;SDS011;9059;49.934;8.650;2023-10-19T07:04:09;10.05;;;4.72;;
17866;SDS011;9059;49.934;8.650;2023-10-19T07:14:14;10.17;;;5.00;;
17866;SDS011;9059;49.934;8.650;2023-10-19T07:24:17;10.98;;;4.15;;
17866;SDS011;9059;49.934;8.650;2023-10-19T07:34:22;9.52;;;4.22;;
17866;SDS011;9059;49.934;8.650;2023-10-19T07:44:29;11.40;;;4.22;;
17866;SDS011;9059;49.934;8.650;2023-10-19T07:54:34;11.02;;;4.30;;
17866;SDS011;9059;49.934;8.650;2023-10-19T08:04:37;7.85;;;4.10;;
17866;SDS011;9059;49.934;8.650;2023-10-19T08:14:41;9.57;;;3.83;;
17866;SDS011;9059;49.934;8.650;2023-10-19T08:24:44;7.28;;;3.47;;
17866;SDS011;9059;49.934;8.650;2023-10-19T08:34:49;11.52;;;4.38;;
17866;SDS011;9059;49.934;8.650;2023-10-19T08:44:52;7.65;;;4.22;;
17866;SDS011;9059;49.934;8.650;2023-10-19T08:54:59;11.27;;;4.05;;
17866;SDS011;9059;49.934;8.650;2023-10-19T09:05:05;7.72;;;3.53;;
17866;SDS011;9059;49.934;8.650;2023-10-19T09:15:15;10.40;;;3.92;;
17866;SDS011;9059;49.934;8.650;2023-10-19T09:25:23;7.63;;;4.25;;
17866;SDS011;9059;49.934;8.650;2023-10-19T09:35:28;10.63;;;4.30;;
17866;SDS011;9059;49.934;8.650;2023-10-19T09:45:32;10.48;;;4.57;;
17866;SDS011;9059;49.934;8.650;2023-10-19T09:55:40;9.23;;;4.10;;
17866;SDS011;9059;49.934;8.650;2023-10-19T10:05:45;11.83;;;4.73;;
17866;SDS011;9059;49.934;8.650;2023-10-19T10:15:51;3.75;;;2.15;;
17866;SDS011;9059;49.934;8.650;2023-10-19T10:25:55;6.95;;;1.50;;
17866;SDS011;9059;49.934;8.650;2023-10-19T10:36:01;6.07;;;1.10;;
17866;SDS011;9059;49.934;8.650;2023-10-19T10:46:07;3.33;;;1.05;;
17866;SDS011;9059;49.934;8.650;2023-10-19T10:56:11;3.60;;;1.10;;
17866;SDS011;9059;49.934;8.650;2023-10-19T11:06:14;5.35;;;1.40;;
17866;SDS011;9059;49.934;8.650;2023-10-19T11:16:22;5.97;;;1.80;;
17866;SDS011;9059;49.934;8.650;2023-10-19T11:26:25;7.68;;;1.23;;
17866;SDS011;9059;49.934;8.650;2023-10-19T11:36:30;4.05;;;1.40;;
17866;SDS011;9059;49.934;8.650;2023-10-19T11:46:33;3.95;;;1.42;;
17866;SDS011;9059;49.934;8.650;2023-10-19T11:56:37;5.25;;;2.03;;
17866;SDS011;9059;49.934;8.650;2023-10-19T12:06:42;2.78;;;1.67;;
17866;SDS011;9059;49.934;8.650;2023-10-19T12:16:48;3.63;;;1.50;;
17866;SDS011;9059;49.934;8.650;2023-10-19T12:26:52;5.32;;;2.17;;
17866;SDS011;9059;49.934;8.650;2023-10-19T12:36:57;7.65;;;1.65;;
17866;SDS011;9059;49.934;8.650;2023-10-19T12:47:01;4.45;;;1.60;;
17866;SDS011;9059;49.934;8.650;2023-10-19T12:57:07;7.00;;;2.10;;
17866;SDS011;9059;49.934;8.650;2023-10-19T13:07:10;5.07;;;1.83;;
17866;SDS011;9059;49.934;8.650;2023-10-19T13:17:15;5.70;;;1.70;;
17866;SDS011;9059;49.934;8.650;2023-10-19T13:27:18;4.93;;;1.80;;
17866;SDS011;9059;49.934;8.650;2023-10-19T13:37:22;4.97;;;2.00;;
17866;SDS011;9059;49.934;8.650;2023-10-19T13:47:25;4.50;;;2.20;;
17866;SDS011;9059;49.934;8.650;2023-10-19T13:57:29;3.92;;;1.60;;
17866;SDS011;9059;49.934;8.650;2023-10-19T14:07:32;5.97;;;2.28;;
17866;SDS011;9059;49.934;8.650;2023-10-19T14:17:36;8.52;;;2.90;;
17866;SDS011;9059;49.934;8.650;2023-10-19T14:27:39;5.30;;;2.53;;
17866;SDS011;9059;49.934;8.650;2023-10-19T14:37:45;5.82;;;2.10;;
17866;SDS011;9059;49.934;8.650;2023-10-19T14:47:50;3.97;;;2.30;;
17866;SDS011;9059;49.934;8.650;2023-10-19T14:57:55;3.85;;;2.10;;
17866;SDS011;9059;49.934;8.650;2023-10-19T15:07:58;4.47;;;2.10;;
17866;SDS011;9059;49.934;8.650;2023-10-19T15:18:03;7.40;;;1.80;;
17866;SDS011;9059;49.934;8.650;2023-10-19T15:28:06;4.70;;;1.83;;
17866;SDS011;9059;49.934;8.650;2023-10-19T15:38:11;3.92;;;2.20;;
17866;SDS011;9059;49.934;8.650;2023-10-19T15:48:14;4.15;;;1.50;;
17866;SDS011;9059;49.934;8.650;2023-10-19T15:58:19;3.65;;;1.50;;
17866;SDS011;9059;49.934;8.650;2023-10-19T16:08:23;5.50;;;1.77;;
17866;SDS011;9059;49.934;8.650;2023-10-19T16:18:27;3.30;;;1.50;;
17866;SDS011;9059;49.934;8.650;2023-10-19T16:28:31;8.02;;;2.00;;
17866;SDS011;9059;49.934;8.650;2023-10-19T16:38:35;3.38;;;1.63;;
17866;SDS011;9059;49.934;8.650;2023-10-19T16:48:38;3.65;;;1.23;;
17866;SDS011;9059;49.934;8.650;2023-10-19T16:58:42;3.03;;;2.05;;
17866;SDS011;9059;49.934;8.650;2023-10-19T17:08:45;5.88;;;2.03;;
17866;SDS011;9059;49.934;8.650;2023-10-19T17:18:49;19.58;;;7.10;;
17866;SDS011;9059;49.934;8.650;2023-10-19T17:28:52;6.18;;;2.60;;
17866;SDS011;9059;49.934;8.650;2023-10-19T17:38:58;9.35;;;2.90;;
17866;SDS011;9059;49.934;8.650;2023-10-19T17:49:02;5.72;;;3.05;;
17866;SDS011;9059;49.934;8.650;2023-10-19T17:59:06;4.53;;;1.80;;
17866;SDS011;9059;49.934;8.650;2023-10-19T18:09:10;7.70;;;2.10;;
17866;SDS011;9059;49.934;8.650;2023-10-19T18:19:16;3.42;;;1.90;;
17866;SDS011;9059;49.934;8.650;2023-10-19T18:29:19;9.93;;;3.00;;
17866;SDS011;9059;49.934;8.650;2023-10-19T18:39:24;6.15;;;2.42;;
17866;SDS011;9059;49.934;8.650;2023-10-19T18:49:26;4.90;;;2.25;;
17866;SDS011;9059;49.934;8.650;2023-10-19T18:59:31;4.75;;;2.08;;
17866;SDS011;9059;49.934;8.650;2023-10-19T19:09:34;6.70;;;1.65;;
17866;SDS011;9059;49.934;8.650;2023-10-19T19:19:38;4.53;;;2.22;;
17866;SDS011;9059;49.934;8.650;2023-10-19T19:29:41;7.03;;;3.05;;
17866;SDS011;9059;49.934;8.650;2023-10-19T19:39:45;5.95;;;2.83;;
17866;SDS011;9059;49.934;8.650;2023-10-19T19:49:50;4.72;;;2.33;;
17866;SDS011;9059;49.934;8.650;2023-10-19T19:59:54;5.88;;;2.22;;
17866;SDS011;9059;49.934;8.650;2023-10-19T20:09:57;3.65;;;2.20;;
17866;SDS011;9059;49.934;8.650;2023-10-19T20:20:01;5.72;;;2.33;;
17866;SDS011;9059;49.934;8.650;2023-10-19T20:30:10;5.18;;;2.67;;
17866;SDS011;9059;49.934;8.650;2023-10-19T20:40:16;2.97;;;2.13;;
17866;SDS011;9059;49.934;8.650;2023-10-19T20:50:22;3.95;;;2.10;;
17866;SDS011;9059;49.934;8.650;2023-10-19T21:00:27;3.33;;;2.00;;
17866;SDS011;9059;49.934;8.650;2023-10-19T21:10:31;4.18;;;1.95;;
17866;SDS011;9059;49.934;8.650;2023-10-19T21:20:36;6.13;;;2.30;;
17866;SDS011;9059;49.934;8.650;2023-10-19T21:30:39;4.20;;;2.20;;
17866;SDS011;9059;49.934;8.650;2023-10-19T21:40:43;5.72;;;2.08;;
17866;SDS011;9059;49.934;8.650;2023-10-19T21:50:47;3.15;;;1.70;;
17866;SDS011;9059;49.934;8.650;2023-10-19T22:00:52;3.25;;;1.92;;
17866;SDS011;9059;49.934;8.650;2023-10-19T22:11:01;4.50;;;1.73;;
17866;SDS011;9059;49.934;8.650;2023-10-19T22:21:06;7.63;;;1.35;;
17866;SDS011;9059;49.934;8.650;2023-10-19T22:31:08;2.13;;;1.20;;
17866;SDS011;9059;49.934;8.650;2023-10-19T22:41:13;1.35;;;1.00;;
17866;SDS011;9059;49.934;8.650;2023-10-19T22:51:16;3.03;;;1.02;;
17866;SDS011;9059;49.934;8.650;2023-10-19T23:01:20;2.92;;;1.40;;
17866;SDS011;9059;49.934;8.650;2023-10-19T23:11:23;3.95;;;1.40;;
17866;SDS011;9059;49.934;8.650;2023-10-19T23:21:32;3.25;;;1.08;;
17866;SDS011;9059;49.934;8.650;2023-10-19T23:31:35;7.90;;;1.30;;
17866;SDS011;9059;49.934;8.650;2023-10-19T23:41:41;7.10;;;1.20;;
17866;SDS011;9059;49.934;8.650;2023-10-19T23:51:44;3.97;;;1.27;;
